Time;durP1;ratioP1;P1;durP2;ratioP2;P2;SDS_P1;SDS_P2;PMS_P1;PMS_P2;Temp;Humidity;BMP_temperature;BMP_pressure;BME280_temperature;BME280_humidity;BME280_pressure;Samples;Min_cycle;Max_cycle;Signal;HPM_P1;HPM_P2
2022/11/10 00:02:27;;;;;;;7.78;1.00;;;;;;;9.30;100.00;100995.09;5008346;28;20226;-47
2022/11/10 00:05:14;;;;;;;4.35;0.82;;;;;;;9.27;100.00;100997.84;5009273;28;20220;-48
2022/11/10 00:08:02;;;;;;;4.07;0.80;;;;;;;9.25;100.00;100997.03;5009309;28;20270;-47
2022/11/10 00:11:00;;;;;;;2.65;0.50;;;;;;;9.24;100.00;101001.50;5006808;28;20560;-46
2022/11/10 00:17:05;;;;;;;3.60;0.65;;;;;;;9.24;100.00;101020.19;5007270;28;20808;-48
2022/11/10 00:19:49;;;;;;;5.95;0.98;;;;;;;9.23;100.00;101015.78;5008715;28;20191;-48
2022/11/10 00:22:34;;;;;;;6.25;0.90;;;;;;;9.24;100.00;101027.34;5009637;28;20696;-49
2022/11/10 00:25:18;;;;;;;4.80;0.95;;;;;;;9.24;100.00;101032.69;5008824;28;20890;-49
2022/11/10 00:28:03;;;;;;;3.63;1.10;;;;;;;9.14;100.00;101032.09;5007686;28;20199;-49
2022/11/10 00:30:47;;;;;;;3.25;1.10;;;;;;;9.14;100.00;101040.13;5009607;28;20195;-50
2022/11/10 00:33:34;;;;;;;5.03;0.80;;;;;;;9.14;100.00;101036.56;5003231;28;20235;-50
2022/11/10 00:36:18;;;;;;;3.55;1.10;;;;;;;9.05;100.00;101048.38;5008555;28;20270;-48
2022/11/10 00:39:02;;;;;;;6.88;0.90;;;;;;;9.08;100.00;101054.53;5006981;28;20255;-50
2022/11/10 00:41:46;;;;;;;2.65;1.15;;;;;;;9.10;100.00;101051.81;5008932;28;20208;-50
2022/11/10 00:44:30;;;;;;;2.53;1.00;;;;;;;9.02;100.00;101053.84;5005481;28;20242;-49
2022/11/10 00:47:14;;;;;;;6.05;1.10;;;;;;;9.01;100.00;101063.66;5009379;28;20710;-49
2022/11/10 00:49:58;;;;;;;3.63;1.25;;;;;;;9.05;100.00;101075.13;5006980;28;20239;-49
2022/11/10 00:52:42;;;;;;;4.60;0.88;;;;;;;8.99;100.00;101073.50;5006310;28;20275;-49
2022/11/10 00:55:26;;;;;;;2.25;0.93;;;;;;;9.02;100.00;101078.75;5007543;28;20230;-49
2022/11/10 00:58:10;;;;;;;5.03;0.90;;;;;;;8.95;100.00;101077.19;5009388;28;20307;-49
2022/11/10 01:01:03;;;;;;;7.68;1.20;;;;;;;8.97;100.00;101080.69;5008399;28;20191;-50
2022/11/10 01:03:47;;;;;;;5.50;1.20;;;;;;;8.93;100.00;101084.34;5008697;28;20211;-51
2022/11/10 01:06:31;;;;;;;4.90;1.20;;;;;;;8.99;100.00;101092.22;5006533;28;20215;-50
2022/11/10 01:09:15;;;;;;;5.00;1.02;;;;;;;8.98;100.00;101106.47;5012876;28;20199;-49
2022/11/10 01:11:59;;;;;;;2.85;0.98;;;;;;;8.94;100.00;101110.16;5013179;28;20640;-49
2022/11/10 01:14:46;;;;;;;3.65;0.90;;;;;;;9.03;100.00;101112.59;5011080;28;20373;-49
2022/11/10 01:17:31;;;;;;;4.47;1.25;;;;;;;9.09;100.00;101111.53;5011954;28;20199;-51
2022/11/10 01:20:14;;;;;;;4.82;1.25;;;;;;;9.19;100.00;101133.56;5013055;28;20192;-51
2022/11/10 01:22:58;;;;;;;5.80;1.33;;;;;;;9.31;100.00;101138.53;5010095;28;20231;-49
2022/11/10 01:25:43;;;;;;;5.47;0.82;;;;;;;9.32;100.00;101147.47;5009475;28;20219;-49
2022/11/10 01:28:27;;;;;;;6.28;1.20;;;;;;;9.24;100.00;101148.53;5011872;28;20223;-48
2022/11/10 01:31:14;;;;;;;8.02;1.65;;;;;;;9.07;100.00;101138.31;5012348;28;20204;-49
2022/11/10 01:33:59;;;;;;;11.82;1.98;;;;;;;8.97;100.00;101144.81;5011303;28;20588;-50
2022/11/10 01:36:43;;;;;;;7.30;1.25;;;;;;;9.04;100.00;101150.88;5012054;28;20238;-49
2022/11/10 01:39:27;;;;;;;6.07;1.40;;;;;;;9.02;100.00;101147.38;5009868;28;20718;-49
2022/11/10 01:42:11;;;;;;;11.10;1.50;;;;;;;8.94;100.00;101160.06;5012278;28;20205;-50
2022/11/10 01:45:23;;;;;;;5.88;1.50;;;;;;;8.94;100.00;101158.25;5011164;28;20241;-49
2022/11/10 01:48:11;;;;;;;7.50;1.20;;;;;;;8.93;100.00;101156.50;5011074;28;20234;-49
2022/11/10 01:51:01;;;;;;;7.25;1.90;;;;;;;8.92;100.00;101168.13;5012259;28;20234;-50
2022/11/10 01:53:57;;;;;;;9.45;1.08;;;;;;;8.87;100.00;101156.66;5009935;28;20274;-49
2022/11/10 01:56:46;;;;;;;3.95;0.73;;;;;;;8.83;100.00;101152.31;5011589;28;20270;-49
2022/11/10 01:59:35;;;;;;;7.07;1.20;;;;;;;8.80;100.00;101166.63;5011132;28;20188;-49
2022/11/10 02:02:36;;;;;;;7.18;1.30;;;;;;;8.78;100.00;101157.78;5011499;28;20207;-49
2022/11/10 02:05:22;;;;;;;4.40;0.88;;;;;;;8.74;100.00;101171.25;5009440;28;20671;-48
2022/11/10 02:08:07;;;;;;;3.92;1.00;;;;;;;8.70;100.00;101158.88;5011422;28;20258;-50
2022/11/10 02:10:51;;;;;;;3.80;0.80;;;;;;;8.63;100.00;101164.38;5010805;28;20239;-50
2022/11/10 02:13:35;;;;;;;2.53;0.85;;;;;;;8.60;100.00;101175.16;5010245;28;20228;-49
2022/11/10 02:16:20;;;;;;;2.78;0.55;;;;;;;8.61;100.00;101176.03;5011989;28;20223;-49
2022/11/10 02:19:23;;;;;;;3.83;1.02;;;;;;;8.59;100.00;101178.75;5011251;28;20692;-48
2022/11/10 02:22:07;;;;;;;5.30;0.98;;;;;;;8.62;100.00;101178.66;5010547;28;20203;-51
2022/11/10 02:24:51;;;;;;;2.65;0.77;;;;;;;8.66;100.00;101193.69;5008688;28;20204;-48
2022/11/10 02:27:35;;;;;;;4.63;1.05;;;;;;;8.69;100.00;101191.88;5010936;28;20194;-49
2022/11/10 02:30:19;;;;;;;5.00;1.08;;;;;;;8.71;100.00;101198.06;5011799;28;20191;-50
2022/11/10 02:33:03;;;;;;;4.13;1.00;;;;;;;8.68;100.00;101212.38;5011048;28;20834;-49
2022/11/10 02:35:47;;;;;;;3.55;0.85;;;;;;;8.75;100.00;101208.63;5008570;28;20255;-50
2022/11/10 02:38:32;;;;;;;6.05;1.20;;;;;;;8.77;100.00;101228.16;5010915;28;20287;-50
2022/11/10 02:41:15;;;;;;;5.03;1.20;;;;;;;8.76;100.00;101220.19;5009158;28;20196;-49
2022/11/10 02:44:00;;;;;;;7.95;1.15;;;;;;;8.80;100.00;101237.91;5009272;28;20199;-49
2022/11/10 02:46:44;;;;;;;6.90;1.80;;;;;;;8.89;100.00;101247.47;5009558;28;20346;-48
2022/11/10 02:49:28;;;;;;;7.45;2.20;;;;;;;8.93;100.00;101255.38;5009346;28;20243;-48
2022/11/10 02:52:12;;;;;;;5.53;1.95;;;;;;;9.00;100.00;101248.09;5009462;28;20215;-49
2022/11/10 02:54:56;;;;;;;9.25;2.20;;;;;;;9.02;100.00;101249.81;5009083;28;20223;-48
2022/11/10 02:57:40;;;;;;;8.55;2.40;;;;;;;9.04;100.00;101258.66;5010773;28;20676;-47
2022/11/10 03:00:24;;;;;;;12.05;2.78;;;;;;;9.07;100.00;101265.72;5010747;28;20204;-50
2022/11/10 03:03:08;;;;;;;10.27;3.03;;;;;;;9.00;100.00;101261.44;5010382;28;20249;-49
2022/11/10 03:05:52;;;;;;;9.02;3.92;;;;;;;8.98;100.00;101257.94;5009446;28;20275;-42
2022/11/10 03:08:37;;;;;;;15.13;4.40;;;;;;;9.05;100.00;101259.53;5011030;28;20219;-42
2022/11/10 03:11:21;;;;;;;13.23;4.82;;;;;;;9.06;100.00;101272.88;5009549;28;20254;-44
2022/11/10 03:14:05;;;;;;;18.42;4.80;;;;;;;9.05;100.00;101267.56;5004709;28;20300;-44
2022/11/10 03:16:49;;;;;;;15.77;5.03;;;;;;;9.00;100.00;101264.13;5010565;28;20239;-45
2022/11/10 03:19:34;;;;;;;12.57;5.90;;;;;;;8.95;100.00;101269.59;5010753;28;20199;-43
2022/11/10 03:22:18;;;;;;;18.48;5.65;;;;;;;8.91;100.00;101267.91;5010877;28;20266;-45
2022/11/10 03:25:02;;;;;;;15.85;5.93;;;;;;;8.85;100.00;101276.97;5010224;28;20243;-43
2022/11/10 03:27:46;;;;;;;14.18;6.15;;;;;;;8.77;100.00;101278.94;5010638;28;20195;-46
2022/11/10 03:30:30;;;;;;;14.90;6.75;;;;;;;8.74;100.00;101289.66;5009865;28;20306;-45
2022/11/10 03:33:14;;;;;;;14.07;6.45;;;;;;;8.75;100.00;101299.47;5010211;28;20199;-43
2022/11/10 03:35:58;;;;;;;15.38;7.03;;;;;;;8.74;100.00;101296.81;5007458;28;20722;-45
2022/11/10 03:38:42;;;;;;;19.98;6.80;;;;;;;8.70;100.00;101300.47;5009538;28;20191;-45
2022/11/10 03:41:25;;;;;;;13.93;7.30;;;;;;;8.62;100.00;101288.16;5010873;28;20191;-44
2022/11/10 03:44:09;;;;;;;14.60;7.88;;;;;;;8.60;100.00;101300.69;5008779;28;20235;-45
2022/11/10 03:46:53;;;;;;;21.75;8.63;;;;;;;8.56;100.00;101295.44;5010556;28;20258;-45
2022/11/10 03:49:37;;;;;;;16.77;8.30;;;;;;;8.56;100.00;101301.66;5009089;28;20199;-45
2022/11/10 03:52:21;;;;;;;16.77;8.13;;;;;;;8.49;100.00;101307.19;5010151;28;20267;-45
2022/11/10 03:55:06;;;;;;;14.23;8.57;;;;;;;8.50;100.00;101314.28;5008485;28;20772;-46
2022/11/10 03:57:50;;;;;;;15.75;8.82;;;;;;;8.49;100.00;101326.75;5009681;28;20704;-46
2022/11/10 04:00:34;;;;;;;14.10;8.00;;;;;;;8.47;100.00;101325.03;5010078;28;20242;-44
2022/11/10 04:03:18;;;;;;;15.15;8.63;;;;;;;8.45;100.00;101327.72;5008773;28;20198;-46
2022/11/10 04:09:05;;;;;;;13.15;7.07;;;;;;;8.35;100.00;101351.06;5009270;28;20226;-45
2022/11/10 04:18:19;;;;;;;18.83;7.68;;;;;;;8.26;100.00;101353.88;5010035;28;20219;-45
2022/11/10 04:21:01;;;;;;;16.35;7.32;;;;;;;8.23;100.00;101344.16;5009100;28;20241;-45
2022/11/10 04:23:45;;;;;;;15.07;6.75;;;;;;;8.19;100.00;101347.78;5009320;28;20226;-44
2022/11/10 04:26:29;;;;;;;13.45;6.78;;;;;;;8.19;100.00;101333.56;5004672;28;20219;-44
2022/11/10 04:29:16;;;;;;;18.80;7.88;;;;;;;8.17;100.00;101341.59;5009095;28;20364;-44
2022/11/10 04:32:00;;;;;;;13.48;7.13;;;;;;;8.14;100.00;101344.34;5006836;28;20196;-47
2022/11/10 04:34:44;;;;;;;11.48;6.50;;;;;;;8.19;100.00;101360.25;5008077;28;20215;-45
2022/11/10 04:37:28;;;;;;;13.13;6.78;;;;;;;8.10;100.00;101365.78;5006631;28;20239;-44
2022/11/10 04:40:12;;;;;;;12.48;7.40;;;;;;;8.15;100.00;101375.44;5007667;28;20191;-45
2022/11/10 04:42:56;;;;;;;14.90;7.00;;;;;;;8.10;100.00;101384.47;5006220;28;20247;-46
2022/11/10 04:45:41;;;;;;;21.83;7.15;;;;;;;8.02;100.00;101397.94;5008981;28;20218;-43
2022/11/10 04:48:26;;;;;;;16.77;6.97;;;;;;;8.02;100.00;101390.84;5008565;28;20187;-45
2022/11/10 04:51:11;;;;;;;16.08;6.32;;;;;;;8.00;100.00;101403.34;5009426;28;20188;-45
2022/11/10 04:53:55;;;;;;;11.93;6.68;;;;;;;7.96;100.00;101401.63;5007956;28;20286;-45
2022/11/10 04:56:39;;;;;;;14.65;6.32;;;;;;;7.95;100.00;101397.19;5007642;28;20231;-46
2022/11/10 04:59:23;;;;;;;14.23;6.55;;;;;;;7.96;100.00;101411.38;5008426;28;20602;-44
2022/11/10 05:02:07;;;;;;;12.45;7.40;;;;;;;7.93;100.00;101403.44;5005846;28;20204;-44
2022/11/10 05:04:51;;;;;;;10.90;6.50;;;;;;;7.93;100.00;101403.44;5008973;28;20212;-45
2022/11/10 05:07:35;;;;;;;12.18;6.65;;;;;;;7.96;100.00;101403.38;5008570;28;20671;-46
2022/11/10 05:10:19;;;;;;;11.45;6.10;;;;;;;7.95;100.00;101422.97;5008826;28;20676;-43
2022/11/10 05:13:03;;;;;;;13.38;6.75;;;;;;;7.91;100.00;101426.63;5007080;28;20262;-45
2022/11/10 05:15:47;;;;;;;10.90;6.20;;;;;;;7.89;100.00;101436.44;5007401;28;20215;-44
2022/11/10 05:18:31;;;;;;;9.32;7.10;;;;;;;7.87;100.00;101428.47;5007768;28;20203;-44
2022/11/10 05:21:15;;;;;;;11.77;6.57;;;;;;;7.83;100.00;101438.31;5007842;28;20231;-43
2022/11/10 05:23:59;;;;;;;13.38;7.47;;;;;;;7.82;100.00;101441.00;5008861;28;20195;-46
2022/11/10 05:26:43;;;;;;;17.58;7.60;;;;;;;7.81;100.00;101434.78;5007482;28;20574;-45
2022/11/10 05:29:26;;;;;;;10.00;7.60;;;;;;;7.82;100.00;101441.88;5007321;28;20621;-46
2022/11/10 05:32:11;;;;;;;16.02;7.78;;;;;;;7.79;100.00;101444.59;5009202;28;20203;-47
2022/11/10 05:34:55;;;;;;;12.77;7.57;;;;;;;7.87;100.00;101435.56;5007836;28;20228;-44
2022/11/10 05:37:40;;;;;;;12.70;7.60;;;;;;;7.82;100.00;101449.88;5007787;28;20291;-47
2022/11/10 05:40:24;;;;;;;16.80;8.32;;;;;;;7.78;100.00;101450.84;5008939;28;20211;-45
2022/11/10 05:43:09;;;;;;;10.85;7.50;;;;;;;7.79;100.00;101441.94;5010098;28;20195;-46
2022/11/10 05:45:53;;;;;;;14.35;8.10;;;;;;;7.78;100.00;101452.63;5008794;28;20593;-45
2022/11/10 05:48:37;;;;;;;14.63;7.93;;;;;;;7.77;100.00;101457.06;5008324;28;20266;-46
2022/11/10 05:51:21;;;;;;;11.32;7.47;;;;;;;7.78;100.00;101455.28;5009071;28;20196;-45
2022/11/10 05:54:05;;;;;;;23.02;8.70;;;;;;;7.78;100.00;101474.88;5009150;28;20287;-45
2022/11/10 05:56:49;;;;;;;13.90;7.82;;;;;;;7.75;100.00;101469.56;5008671;28;20306;-44
2022/11/10 05:59:33;;;;;;;14.48;7.65;;;;;;;7.79;100.00;101487.28;5012146;28;20192;-47
2022/11/10 06:02:16;;;;;;;16.52;8.27;;;;;;;7.81;100.00;101482.81;5011566;28;20223;-44
2022/11/10 06:05:00;;;;;;;12.52;7.22;;;;;;;7.78;100.00;101488.19;5011508;28;20607;-45
2022/11/10 06:07:45;;;;;;;13.68;7.60;;;;;;;7.73;100.00;101502.50;5012159;28;20672;-45
2022/11/10 06:10:30;;;;;;;14.38;7.68;;;;;;;7.82;100.00;101500.56;5011947;28;20737;-45
2022/11/10 06:13:14;;;;;;;15.80;7.35;;;;;;;7.78;100.00;101509.53;5011995;28;20195;-47
2022/11/10 06:15:58;;;;;;;15.73;7.90;;;;;;;7.78;100.00;101514.88;5005421;28;20756;-47
2022/11/10 06:18:42;;;;;;;15.68;7.90;;;;;;;7.80;100.00;101523.69;5011705;28;20682;-46
2022/11/10 06:21:26;;;;;;;12.98;7.82;;;;;;;7.74;100.00;101512.25;5009757;28;20260;-49
2022/11/10 06:24:10;;;;;;;17.60;8.30;;;;;;;7.74;100.00;101522.91;5009924;28;20665;-47
2022/11/10 06:26:54;;;;;;;13.60;7.75;;;;;;;7.75;100.00;101527.38;5011289;28;20227;-50
2022/11/10 06:29:38;;;;;;;14.02;7.50;;;;;;;7.73;100.00;101527.38;5010264;28;20199;-49
2022/11/10 06:32:22;;;;;;;16.48;8.60;;;;;;;7.74;100.00;101537.16;5011463;28;20243;-50
2022/11/10 06:35:06;;;;;;;16.35;9.05;;;;;;;7.77;100.00;101541.56;5006394;28;20762;-52
2022/11/10 06:38:16;;;;;;;16.02;8.77;;;;;;;7.79;100.00;101542.41;5011157;28;20275;-50
2022/11/10 06:41:00;;;;;;;14.68;9.73;;;;;;;7.80;100.00;101555.72;5010383;28;20653;-49
2022/11/10 06:43:44;;;;;;;20.67;10.07;;;;;;;7.80;100.00;101561.06;5007855;28;20192;-52
2022/11/10 06:46:28;;;;;;;14.95;9.75;;;;;;;7.85;100.00;101582.34;5010693;28;20228;-48
2022/11/10 06:49:12;;;;;;;18.05;10.52;;;;;;;7.87;100.00;101593.88;5010936;28;20219;-48
2022/11/10 06:51:56;;;;;;;16.05;11.15;;;;;;;7.87;100.00;101604.56;5010744;28;20203;-47
2022/11/10 06:54:40;;;;;;;17.58;11.20;;;;;;;7.94;100.00;101605.34;5008246;28;20378;-48
2022/11/10 06:57:24;;;;;;;19.83;11.65;;;;;;;7.95;100.00;101588.41;5005509;28;20583;-46
2022/11/10 07:00:08;;;;;;;25.05;12.00;;;;;;;8.04;100.00;101604.28;5010195;28;20670;-46
2022/11/10 07:03:05;;;;;;;21.08;12.07;;;;;;;8.05;100.00;101603.41;5008058;28;20295;-53
2022/11/10 07:05:49;;;;;;;21.50;12.23;;;;;;;8.04;100.00;101613.16;5010071;28;20224;-49
2022/11/10 07:08:33;;;;;;;18.75;12.07;;;;;;;8.05;100.00;101611.41;5008376;28;20196;-47
2022/11/10 07:11:17;;;;;;;23.58;13.48;;;;;;;8.08;100.00;101603.34;5010807;28;20692;-47
2022/11/10 07:14:01;;;;;;;23.10;12.88;;;;;;;8.08;100.00;101608.66;5009970;28;20220;-50
2022/11/10 07:16:45;;;;;;;26.30;13.43;;;;;;;8.10;100.00;101612.19;5010227;28;20223;-51
2022/11/10 07:19:31;;;;;;;19.27;13.88;;;;;;;8.17;100.00;101629.88;5010396;28;20259;-52
2022/11/10 07:22:15;;;;;;;24.58;13.57;;;;;;;8.17;100.00;101621.00;5008350;28;20199;-48
2022/11/10 07:24:59;;;;;;;24.70;14.48;;;;;;;8.19;100.00;101628.06;5003561;28;20308;-48
2022/11/10 07:27:43;;;;;;;25.27;13.52;;;;;;;8.27;100.00;101637.75;5008806;28;20669;-48
2022/11/10 07:30:29;;;;;;;28.20;14.52;;;;;;;8.26;100.00;101636.84;5009344;28;20282;-47
2022/11/10 07:33:14;;;;;;;25.77;14.80;;;;;;;8.30;100.00;101643.03;5007494;28;20352;-49
2022/11/10 07:36:02;;;;;;;24.05;14.80;;;;;;;8.37;100.00;101639.38;5006714;28;20607;-51
2022/11/10 07:38:46;;;;;;;21.38;15.57;;;;;;;8.40;100.00;101631.31;5010099;28;20331;-51
2022/11/10 07:41:31;;;;;;;29.25;16.10;;;;;;;8.50;100.00;101635.63;5007052;28;20617;-50
2022/11/10 07:44:15;;;;;;;30.58;16.20;;;;;;;8.50;100.00;101637.41;5008854;28;20208;-46
2022/11/10 07:46:59;;;;;;;29.75;15.50;;;;;;;8.49;100.00;101643.69;5009760;28;20365;-47
2022/11/10 07:49:43;;;;;;;26.58;15.98;;;;;;;8.52;100.00;101651.63;5008836;28;20247;-48
2022/11/10 07:52:27;;;;;;;32.35;16.67;;;;;;;8.53;100.00;101653.41;5010019;28;20195;-49
2022/11/10 07:55:10;;;;;;;22.23;16.08;;;;;;;8.60;100.00;101658.59;5007321;28;20726;-51
2022/11/10 07:57:58;;;;;;;28.10;16.75;;;;;;;8.62;100.00;101661.25;5006616;28;20250;-46
2022/11/10 08:00:44;;;;;;;27.38;17.48;;;;;;;8.64;100.00;101660.31;5005821;28;20735;-50
2022/11/10 08:03:28;;;;;;;29.52;16.95;;;;;;;8.74;100.00;101665.50;5009503;28;20246;-51
2022/11/10 08:06:12;;;;;;;31.65;16.45;;;;;;;8.81;100.00;101667.16;5008931;28;20703;-48
2022/11/10 08:08:57;;;;;;;29.25;15.65;;;;;;;8.86;100.00;101675.97;5009296;28;20199;-50
2022/11/10 08:11:41;;;;;;;27.17;16.08;;;;;;;8.85;100.00;101666.19;5009679;28;20211;-46
2022/11/10 08:14:25;;;;;;;29.85;15.98;;;;;;;8.91;100.00;101670.56;5005650;28;20247;-45
2022/11/10 08:17:09;;;;;;;31.80;14.80;;;;;;;8.92;100.00;101672.31;5008292;28;20200;-49
2022/11/10 08:19:53;;;;;;;29.25;15.27;;;;;;;8.96;100.00;101664.19;5009178;28;20246;-47
2022/11/10 08:22:37;;;;;;;26.58;15.35;;;;;;;9.05;100.00;101663.16;5009305;28;20207;-45
2022/11/10 08:25:21;;;;;;;28.15;15.13;;;;;;;9.00;100.00;101673.06;5008845;28;20586;-45
2022/11/10 08:28:07;;;;;;;23.70;14.18;;;;;;;9.03;100.00;101668.53;5005968;28;20196;-46
2022/11/10 08:30:52;;;;;;;21.23;13.73;;;;;;;9.02;100.00;101679.25;5008413;28;20720;-52
2022/11/10 08:33:36;;;;;;;23.10;13.10;;;;;;;9.05;100.00;101676.50;5008393;28;20200;-48
2022/11/10 08:36:20;;;;;;;28.75;13.57;;;;;;;9.13;100.00;101684.41;5007767;28;20420;-49
2022/11/10 08:39:05;;;;;;;23.65;12.48;;;;;;;9.49;100.00;101686.38;5008940;28;20191;-48
2022/11/10 08:41:49;;;;;;;27.70;13.48;;;;;;;9.70;100.00;101697.53;5006492;28;20192;-47
2022/11/10 08:44:33;;;;;;;25.73;12.75;;;;;;;9.86;100.00;101703.44;5007136;28;20207;-47
2022/11/10 08:47:17;;;;;;;22.17;12.40;;;;;;;9.87;100.00;101706.09;5007852;28;20633;-48
2022/11/10 08:50:01;;;;;;;32.45;12.45;;;;;;;9.87;100.00;101698.06;5009229;28;20199;-50
2022/11/10 08:52:44;;;;;;;19.92;10.40;;;;;;;10.02;100.00;101696.00;5006563;28;20199;-52
2022/11/10 08:55:29;;;;;;;22.42;10.55;;;;;;;9.89;100.00;101685.53;5008441;28;20239;-48
2022/11/10 08:58:18;;;;;;;19.70;9.95;;;;;;;9.82;100.00;101691.94;5008669;28;20670;-50
2022/11/10 09:01:10;;;;;;;19.25;10.73;;;;;;;9.78;100.00;101698.28;5009046;28;20192;-46
2022/11/10 09:03:55;;;;;;;23.02;9.82;;;;;;;9.81;100.00;101703.56;5007845;28;20184;-48
2022/11/10 09:06:39;;;;;;;26.95;10.40;;;;;;;9.90;100.00;101707.84;5008558;28;20647;-52
2022/11/10 09:09:25;;;;;;;20.58;9.40;;;;;;;10.10;100.00;101704.72;5007852;28;20220;-51
2022/11/10 09:12:09;;;;;;;28.65;10.38;;;;;;;10.17;100.00;101717.06;5008892;28;20338;-47
2022/11/10 09:14:53;;;;;;;24.50;10.25;;;;;;;10.26;100.00;101703.47;5008425;28;20215;-46
2022/11/10 09:17:38;;;;;;;20.30;9.10;;;;;;;10.14;100.00;101708.22;5008629;28;20191;-50
2022/11/10 09:20:23;;;;;;;24.70;9.38;;;;;;;10.18;100.00;101713.47;5007930;28;20191;-47
2022/11/10 09:23:10;;;;;;;23.50;8.88;;;;;;;10.07;100.00;101715.50;5007997;28;20330;-50
2022/11/10 09:25:55;;;;;;;20.70;8.18;;;;;;;10.11;100.00;101725.25;5008302;28;20216;-50
2022/11/10 09:28:39;;;;;;;23.75;8.73;;;;;;;10.21;100.00;101729.50;5008810;28;20267;-50
2022/11/10 09:31:24;;;;;;;21.02;8.48;;;;;;;10.27;100.00;101731.13;5011864;28;20296;-50
2022/11/10 09:34:09;;;;;;;22.17;8.70;;;;;;;10.22;100.00;101722.31;5008585;28;20218;-48
2022/11/10 09:36:53;;;;;;;26.00;8.40;;;;;;;10.26;100.00;101724.91;5005494;28;20333;-48
2022/11/10 09:39:37;;;;;;;19.05;7.75;;;;;;;10.27;100.00;101715.94;5010881;28;20718;-48
2022/11/10 09:42:33;;;;;;;23.25;8.32;;;;;;;10.21;100.00;101726.81;5011131;28;20627;-49
2022/11/10 09:45:38;;;;;;;16.77;8.25;;;;;;;10.23;100.00;101724.97;5010761;28;20227;-49
2022/11/10 09:48:33;;;;;;;16.95;7.35;;;;;;;10.27;100.00;101731.13;5011556;28;20659;-49
2022/11/10 09:51:23;;;;;;;23.88;8.63;;;;;;;10.25;100.00;101747.22;5011993;28;20195;-47
2022/11/10 09:54:41;;;;;;;19.00;7.30;;;;;;;10.27;100.00;101737.34;5008178;28;20243;-45
2022/11/10 09:57:26;;;;;;;24.58;7.18;;;;;;;10.28;100.00;101754.34;5008730;28;20199;-47
2022/11/10 10:00:16;;;;;;;21.40;8.10;;;;;;;10.24;100.00;101755.31;5010201;28;20206;-47
2022/11/10 10:03:04;;;;;;;21.27;7.75;;;;;;;10.26;100.00;101748.13;5009594;28;20243;-44
2022/11/10 10:06:08;;;;;;;21.13;7.40;;;;;;;10.30;100.00;101757.91;5011619;28;20701;-46
2022/11/10 10:09:25;;;;;;;22.95;7.80;;;;;;;10.28;100.00;101755.22;5011671;28;20338;-45
2022/11/10 10:12:20;;;;;;;16.73;7.47;;;;;;;10.29;100.00;101761.47;5023914;28;20235;-48
2022/11/10 10:15:08;;;;;;;20.45;7.95;;;;;;;10.41;100.00;101774.59;5009838;28;20808;-45
2022/11/10 10:18:08;;;;;;;15.02;7.05;;;;;;;10.52;100.00;101766.31;5011968;28;20206;-44
2022/11/10 10:21:16;;;;;;;19.58;7.25;;;;;;;10.67;100.00;101774.00;5012321;28;20570;-45
2022/11/10 10:24:01;;;;;;;17.38;7.07;;;;;;;10.64;100.00;101771.38;5011387;28;20208;-47
2022/11/10 10:27:09;;;;;;;23.67;7.47;;;;;;;10.71;100.00;101778.38;5009520;28;20696;-44
2022/11/10 10:29:53;;;;;;;20.05;7.78;;;;;;;10.88;100.00;101766.34;5009930;28;20302;-45
2022/11/10 10:32:37;;;;;;;21.10;7.50;;;;;;;10.93;100.00;101769.78;5011180;28;20190;-45
2022/11/10 10:35:21;;;;;;;22.40;8.15;;;;;;;10.90;100.00;101759.16;5010287;28;20301;-46
2022/11/10 10:38:18;;;;;;;18.75;6.70;;;;;;;11.01;100.00;101764.25;5009414;28;20648;-47
2022/11/10 10:41:14;;;;;;;21.10;6.97;;;;;;;11.03;100.00;101759.75;5010302;28;20203;-46
2022/11/10 10:44:01;;;;;;;18.92;7.43;;;;;;;11.04;100.00;101756.13;5010655;28;20243;-47
2022/11/10 10:46:47;;;;;;;20.65;7.28;;;;;;;10.98;100.00;101759.84;5005896;28;20210;-45
2022/11/10 10:49:37;;;;;;;23.27;7.80;;;;;;;11.09;100.00;101776.56;5006661;28;20277;-46
2022/11/10 10:52:24;;;;;;;19.92;7.28;;;;;;;11.07;100.00;101774.84;5011667;28;20242;-46
2022/11/10 10:55:12;;;;;;;21.85;7.32;;;;;;;11.25;100.00;101776.16;5010656;28;20278;-44
2022/11/10 10:57:59;;;;;;;20.17;7.65;;;;;;;11.11;100.00;101780.09;5011266;28;20669;-47
2022/11/10 11:00:53;;;;;;;15.85;6.78;;;;;;;11.03;100.00;101776.69;5008872;28;20285;-45
2022/11/10 11:03:39;;;;;;;18.75;7.13;;;;;;;11.10;100.00;101780.09;5007163;28;20589;-44
2022/11/10 11:06:28;;;;;;;17.15;7.03;;;;;;;10.99;100.00;101783.06;5009856;28;20597;-43
2022/11/10 11:09:39;;;;;;;17.83;6.32;;;;;;;11.12;100.00;101787.19;5021199;28;20219;-44
2022/11/10 11:12:30;;;;;;;16.38;6.90;;;;;;;11.13;100.00;101778.25;5011102;28;20322;-45
2022/11/10 11:15:25;;;;;;;26.08;6.95;;;;;;;11.13;100.00;101783.59;5008201;28;20263;-45
2022/11/10 11:18:17;;;;;;;20.75;6.40;;;;;;;11.08;100.00;101785.50;5010168;28;20176;-44
2022/11/10 11:21:20;;;;;;;20.95;6.88;;;;;;;11.13;100.00;101772.88;5010154;28;20280;-45
2022/11/10 11:24:23;;;;;;;21.20;6.65;;;;;;;11.22;100.00;101771.75;5008342;28;20179;-45
2022/11/10 11:27:36;;;;;;;19.58;6.40;;;;;;;11.33;100.00;101784.91;5010804;28;20245;-46
2022/11/10 11:30:22;;;;;;;20.58;6.50;;;;;;;11.48;100.00;101789.00;5011223;28;20199;-45
2022/11/10 11:33:36;;;;;;;22.98;7.55;;;;;;;11.66;100.00;101785.78;5010478;28;20979;-44
2022/11/10 11:36:39;;;;;;;15.23;6.30;;;;;;;11.70;100.00;101781.22;5009925;28;20223;-45
2022/11/10 11:39:47;;;;;;;17.13;6.05;;;;;;;11.63;100.00;101782.31;5010068;28;20230;-44
2022/11/10 11:43:07;;;;;;;24.55;6.45;;;;;;;11.61;100.00;101770.72;5010633;28;20661;-45
2022/11/10 11:46:05;;;;;;;21.80;7.15;;;;;;;11.67;100.00;101789.34;5009677;28;20267;-45
2022/11/10 11:49:31;;;;;;;18.00;7.00;;;;;;;11.65;100.00;101788.50;5009717;28;20231;-46
2022/11/10 11:52:35;;;;;;;18.05;6.25;;;;;;;11.62;100.00;101784.13;4991623;28;20207;-44
2022/11/10 11:55:31;;;;;;;17.27;6.03;;;;;;;11.80;100.00;101787.22;5009680;28;20212;-46
2022/11/10 11:58:33;;;;;;;20.67;6.63;;;;;;;11.72;100.00;101791.00;5010162;28;20247;-45
2022/11/10 12:01:33;;;;;;;20.50;7.03;;;;;;;11.74;100.00;101780.19;5008109;28;20192;-45
2022/11/10 12:04:32;;;;;;;24.50;7.50;;;;;;;11.69;100.00;101783.00;5009642;28;20553;-46
2022/11/10 12:07:35;;;;;;;23.58;6.80;;;;;;;11.70;100.00;101787.47;5006799;28;20187;-43
2022/11/10 12:10:44;;;;;;;26.90;7.35;;;;;;;11.63;100.00;101793.03;5009640;28;20282;-46
2022/11/10 12:13:53;;;;;;;18.65;6.93;;;;;;;11.77;100.00;101800.75;5005704;28;20211;-44
2022/11/10 12:16:39;;;;;;;28.25;6.82;;;;;;;11.84;100.00;101805.00;5008340;28;20362;-48
2022/11/10 12:19:23;;;;;;;22.65;6.35;;;;;;;11.86;100.00;101797.78;5009632;28;20330;-47
2022/11/10 12:22:34;;;;;;;21.10;7.07;;;;;;;11.84;100.00;101805.00;5009063;28;20188;-48
2022/11/10 12:25:41;;;;;;;16.27;6.18;;;;;;;11.83;100.00;101804.13;5008768;28;20231;-48
2022/11/10 12:28:35;;;;;;;17.85;6.93;;;;;;;11.88;100.00;101812.09;5009455;28;20196;-48
2022/11/10 12:31:22;;;;;;;24.05;7.20;;;;;;;11.86;100.00;101806.72;5009415;28;20245;-47
2022/11/10 12:34:28;;;;;;;26.30;7.10;;;;;;;11.76;100.00;101805.19;5008428;28;20243;-48
2022/11/10 12:37:39;;;;;;;27.02;7.25;;;;;;;11.84;100.00;101807.69;5009424;28;20227;-49
2022/11/10 12:40:26;;;;;;;20.45;6.75;;;;;;;11.93;100.00;101808.34;5006989;28;20202;-47
2022/11/10 12:43:34;;;;;;;16.00;6.25;;;;;;;11.85;100.00;101807.66;5005701;28;20307;-47
2022/11/10 12:46:18;;;;;;;19.15;6.05;;;;;;;11.86;100.00;101808.53;5007493;28;20299;-48
2022/11/10 12:49:11;;;;;;;22.55;6.40;;;;;;;11.84;100.00;101819.31;5008931;28;20199;-47
2022/11/10 12:52:10;;;;;;;21.40;5.47;;;;;;;11.85;100.00;101822.88;5008558;28;20625;-48
2022/11/10 12:54:54;;;;;;;24.42;6.78;;;;;;;11.80;100.00;101825.69;5008516;28;20258;-50
2022/11/10 12:57:40;;;;;;;18.67;5.97;;;;;;;11.85;100.00;101836.28;5009355;28;20187;-48
2022/11/10 13:00:28;;;;;;;20.05;5.38;;;;;;;11.88;100.00;101837.13;5007562;28;20572;-47
2022/11/10 13:03:22;;;;;;;18.13;4.97;;;;;;;11.91;100.00;101842.41;5009727;28;20184;-47